createdAt,value
2022-08-28T00:00:09.792Z,13.73
2022-08-28T00:02:36.326Z,13.73
2022-08-28T00:05:03.619Z,13.68
2022-08-28T00:07:30.204Z,13.65
2022-08-28T00:09:56.715Z,13.64
2022-08-28T00:12:23.311Z,13.56
2022-08-28T00:14:49.812Z,13.51
2022-08-28T00:17:16.310Z,13.54
2022-08-28T00:19:42.812Z,13.52
2022-08-28T00:22:09.494Z,13.49
2022-08-28T00:24:36.822Z,13.54
2022-08-28T00:27:22.609Z,13.51
2022-08-28T00:29:49.180Z,13.47
2022-08-28T00:32:15.714Z,13.33
2022-08-28T00:34:42.290Z,13.31
2022-08-28T00:37:08.873Z,13.34
2022-08-28T00:39:36.012Z,13.30
2022-08-28T00:42:03.017Z,13.25
2022-08-28T00:44:30.359Z,13.32
2022-08-28T00:46:59.036Z,13.17
2022-08-28T00:49:29.880Z,13.18
2022-08-28T00:52:12.499Z,13.15
2022-08-28T00:54:56.873Z,13.15
2022-08-28T00:57:30.427Z,13.15
2022-08-28T00:59:57.351Z,13.15
2022-08-28T01:02:24.573Z,13.15
2022-08-28T01:04:51.213Z,13.10
2022-08-28T01:07:23.231Z,13.03
2022-08-28T01:09:53.627Z,13.06
2022-08-28T01:12:27.468Z,13.02
2022-08-28T01:14:59.989Z,12.95
2022-08-28T01:17:28.890Z,12.95
2022-08-28T01:19:58.909Z,12.95
2022-08-28T01:22:41.504Z,12.92
2022-08-28T01:25:13.179Z,12.91
2022-08-28T01:27:41.845Z,12.90
2022-08-28T01:30:13.881Z,12.87
2022-08-28T01:32:44.291Z,12.77
2022-08-28T01:35:21.214Z,12.79
2022-08-28T01:37:47.703Z,12.81
2022-08-28T01:40:29.958Z,12.73
2022-08-28T01:42:56.511Z,12.77
2022-08-28T01:45:24.161Z,12.74
2022-08-28T01:47:51.402Z,12.65
2022-08-28T01:50:20.232Z,12.59
2022-08-28T01:52:47.098Z,12.68
2022-08-28T01:55:14.087Z,12.73
2022-08-28T01:57:46.048Z,12.71
2022-08-28T02:00:14.008Z,12.72
2022-08-28T02:02:40.600Z,12.66
2022-08-28T02:05:08.146Z,12.42
2022-08-28T02:07:35.198Z,12.34
2022-08-28T02:10:08.917Z,12.35
2022-08-28T02:12:35.879Z,12.37
2022-08-28T02:15:02.480Z,12.40
2022-08-28T02:17:29.554Z,12.38
2022-08-28T02:19:56.069Z,12.39
2022-08-28T02:22:22.657Z,12.39
2022-08-28T02:24:49.357Z,12.35
2022-08-28T02:27:15.852Z,12.17
2022-08-28T02:29:42.374Z,12.21
2022-08-28T02:32:08.864Z,12.17
2022-08-28T02:34:35.970Z,12.05
2022-08-28T02:37:02.636Z,12.01
2022-08-28T02:39:29.247Z,11.97
2022-08-28T02:41:55.797Z,11.89
2022-08-28T02:44:22.304Z,12.03
2022-08-28T02:46:49.058Z,12.04
2022-08-28T02:49:15.560Z,11.86
2022-08-28T02:51:42.274Z,12.02
2022-08-28T02:54:08.857Z,11.75
2022-08-28T02:56:35.361Z,11.75
2022-08-28T02:59:01.947Z,11.75
2022-08-28T03:01:28.502Z,11.85
2022-08-28T03:03:55.032Z,11.93
2022-08-28T03:06:23.002Z,12.00
2022-08-28T03:08:49.525Z,12.04
2022-08-28T03:11:16.023Z,12.05
2022-08-28T03:13:42.549Z,12.04
2022-08-28T03:16:09.052Z,12.06
2022-08-28T03:18:35.612Z,11.75
2022-08-28T03:21:02.121Z,11.84
2022-08-28T03:23:29.071Z,11.94
2022-08-28T03:26:03.086Z,11.86
2022-08-28T03:28:33.439Z,11.91
2022-08-28T03:31:00.651Z,11.82
2022-08-28T03:33:27.630Z,11.84
2022-08-28T03:35:55.475Z,11.77
2022-08-28T03:38:22.279Z,11.84
2022-08-28T03:40:52.115Z,11.86
2022-08-28T03:43:24.379Z,11.71
2022-08-28T03:45:58.755Z,11.88
2022-08-28T03:48:26.974Z,11.96
2022-08-28T03:50:53.471Z,11.94
2022-08-28T03:53:25.524Z,11.90
2022-08-28T03:55:52.042Z,11.94
2022-08-28T03:58:19.349Z,11.92
2022-08-28T04:00:46.326Z,11.79
2022-08-28T04:03:13.476Z,11.77
2022-08-28T04:05:41.271Z,11.71
2022-08-28T04:08:07.889Z,11.73
2022-08-28T04:10:34.691Z,11.74
2022-08-28T04:13:01.339Z,11.78
2022-08-28T04:15:28.076Z,11.76
2022-08-28T04:17:56.186Z,11.75
2022-08-28T04:20:22.847Z,11.74
2022-08-28T04:22:49.334Z,11.73
2022-08-28T04:25:22.284Z,11.66
2022-08-28T04:27:49.846Z,11.54
2022-08-28T04:30:16.507Z,11.65
2022-08-28T04:32:43.003Z,11.73
2022-08-28T04:35:12.131Z,11.72
2022-08-28T04:37:39.236Z,11.77
2022-08-28T04:40:09.813Z,11.74
2022-08-28T04:42:37.836Z,11.70
2022-08-28T04:45:06.237Z,11.75
2022-08-28T04:47:38.703Z,11.80
2022-08-28T04:50:06.332Z,11.60
2022-08-28T04:52:32.814Z,11.33
2022-08-28T04:54:59.310Z,11.55
2022-08-28T04:57:30.437Z,11.69
2022-08-28T04:59:59.815Z,11.81
2022-08-28T05:02:26.467Z,12.01
2022-08-28T05:04:53.077Z,12.01
2022-08-28T05:07:19.576Z,12.06
2022-08-28T05:09:46.128Z,12.06
2022-08-28T05:12:17.114Z,12.16
2022-08-28T05:14:43.942Z,12.28
2022-08-28T05:17:12.804Z,12.38
2022-08-28T05:19:39.296Z,12.45
2022-08-28T05:22:05.834Z,12.53
2022-08-28T05:24:32.425Z,12.66
2022-08-28T05:26:58.922Z,12.62
2022-08-28T05:29:25.613Z,12.65
2022-08-28T05:31:52.439Z,12.78
2022-08-28T05:34:18.949Z,13.15
2022-08-28T05:36:45.446Z,13.29
2022-08-28T05:39:12.943Z,13.25
2022-08-28T05:41:41.778Z,13.57
2022-08-28T05:44:11.843Z,13.74
2022-08-28T05:46:40.568Z,13.67
2022-08-28T05:49:09.997Z,13.79
2022-08-28T05:51:40.102Z,13.78
2022-08-28T05:54:06.695Z,14.39
2022-08-28T05:56:36.300Z,14.67
2022-08-28T05:59:04.174Z,14.72
2022-08-28T06:01:33.215Z,14.81
2022-08-28T06:04:02.187Z,14.72
2022-08-28T06:06:30.328Z,14.61
2022-08-28T06:08:59.150Z,14.64
2022-08-28T06:11:30.326Z,14.32
2022-08-28T06:14:00.791Z,14.21
2022-08-28T06:16:28.642Z,14.45
2022-08-28T06:18:55.888Z,15.01
2022-08-28T06:21:22.455Z,15.26
2022-08-28T06:23:48.990Z,15.37
2022-08-28T06:26:15.539Z,15.23
2022-08-28T06:28:47.632Z,15.50
2022-08-28T06:31:25.047Z,15.97
2022-08-28T06:34:02.525Z,16.13
2022-08-28T06:36:30.856Z,16.42
2022-08-28T06:38:58.729Z,16.28
2022-08-28T06:41:32.522Z,16.34
2022-08-28T06:43:59.424Z,16.53
2022-08-28T06:46:26.671Z,16.77
2022-08-28T06:48:53.263Z,17.11
2022-08-28T06:51:19.950Z,17.55
2022-08-28T06:53:49.685Z,17.93
2022-08-28T06:56:26.277Z,18.38
2022-08-28T06:58:56.723Z,18.66
2022-08-28T07:01:27.132Z,18.75
2022-08-28T07:03:55.604Z,19.03
2022-08-28T07:06:23.390Z,19.21
2022-08-28T07:08:50.999Z,19.38
2022-08-28T07:11:29.772Z,19.57
2022-08-28T07:13:56.907Z,19.77
2022-08-28T07:16:26.504Z,19.79
2022-08-28T07:18:53.678Z,19.88
2022-08-28T07:21:20.626Z,20.14
2022-08-28T07:23:47.780Z,20.24
2022-08-28T07:26:17.276Z,20.12
2022-08-28T07:28:43.800Z,20.39
2022-08-28T07:31:26.118Z,20.02
2022-08-28T07:33:54.265Z,19.76
2022-08-28T07:36:29.757Z,19.49
2022-08-28T07:38:58.250Z,19.20
2022-08-28T07:41:30.570Z,19.27
2022-08-28T07:44:15.761Z,19.50
2022-08-28T07:46:43.162Z,19.93
2022-08-28T07:49:10.558Z,20.07
2022-08-28T07:51:37.274Z,20.12
2022-08-28T07:54:04.652Z,20.14
2022-08-28T07:56:32.118Z,20.31
2022-08-28T07:59:00.068Z,20.36
2022-08-28T08:01:30.560Z,20.36
2022-08-28T08:04:01.592Z,20.62
2022-08-28T08:06:33.778Z,20.75
2022-08-28T08:09:01.672Z,20.47
2022-08-28T08:11:28.180Z,20.36
2022-08-28T08:14:03.747Z,20.55
2022-08-28T08:16:34.476Z,20.88
2022-08-28T08:19:02.154Z,20.48
2022-08-28T08:21:30.405Z,19.90
2022-08-28T08:23:58.194Z,19.53
2022-08-28T08:26:28.041Z,19.60
2022-08-28T08:28:55.886Z,19.79
2022-08-28T08:31:27.640Z,20.22
2022-08-28T08:33:57.262Z,20.85
2022-08-28T08:36:25.951Z,21.25
2022-08-28T08:38:59.808Z,21.25
2022-08-28T08:41:33.835Z,20.47
2022-08-28T08:44:21.219Z,20.58
2022-08-28T08:46:53.370Z,21.27
2022-08-28T08:49:28.124Z,21.03
2022-08-28T08:52:13.264Z,20.39
2022-08-28T08:54:45.097Z,20.24
2022-08-28T08:57:13.534Z,20.07
2022-08-28T08:59:40.245Z,20.29
2022-08-28T09:02:11.331Z,20.62
2022-08-28T09:04:46.443Z,20.98
2022-08-28T09:07:27.642Z,20.57
2022-08-28T09:09:56.166Z,20.55
2022-08-28T09:12:26.063Z,20.99
2022-08-28T09:15:05.085Z,21.27
2022-08-28T09:17:37.667Z,21.57
2022-08-28T09:20:08.967Z,21.08
2022-08-28T09:22:43.252Z,20.96
2022-08-28T09:25:51.405Z,21.21
2022-08-28T09:28:20.163Z,21.24
2022-08-28T09:30:58.656Z,21.62
2022-08-28T09:33:41.715Z,21.78
2022-08-28T09:36:32.451Z,22.01
2022-08-28T09:39:15.943Z,21.90
2022-08-28T09:42:10.532Z,21.05
2022-08-28T09:45:13.736Z,20.61
2022-08-28T09:47:46.705Z,20.43
2022-08-28T09:50:19.786Z,20.36
2022-08-28T09:52:52.015Z,20.54
2022-08-28T09:55:35.705Z,20.56
2022-08-28T09:58:03.380Z,20.86
2022-08-28T10:00:35.827Z,21.24
2022-08-28T10:03:14.500Z,21.09
2022-08-28T10:05:48.670Z,21.22
2022-08-28T10:08:54.827Z,21.61
2022-08-28T10:11:27.187Z,22.04
2022-08-28T10:14:07.047Z,22.26
2022-08-28T10:16:37.478Z,22.02
2022-08-28T10:19:12.789Z,21.47
2022-08-28T10:21:47.124Z,21.09
2022-08-28T10:24:41.420Z,20.87
2022-08-28T10:27:11.872Z,21.16
2022-08-28T10:30:04.282Z,21.76
2022-08-28T10:33:07.449Z,21.23
2022-08-28T10:35:53.279Z,20.79
2022-08-28T10:38:25.007Z,20.89
2022-08-28T10:40:56.231Z,20.71
2022-08-28T10:43:33.726Z,20.85
2022-08-28T10:46:05.380Z,21.38
2022-08-28T10:48:54.830Z,21.66
2022-08-28T10:51:36.911Z,21.87
2022-08-28T10:54:44.448Z,22.20
2022-08-28T10:57:31.029Z,22.47
2022-08-28T10:59:58.654Z,22.56
2022-08-28T11:02:26.221Z,22.32
2022-08-28T11:04:58.222Z,21.71
2022-08-28T11:07:35.214Z,21.49
2022-08-28T11:10:29.718Z,21.63
2022-08-28T11:12:56.532Z,21.59
2022-08-28T11:15:38.120Z,21.86
2022-08-28T11:18:13.846Z,22.30
2022-08-28T11:20:42.171Z,22.75
2022-08-28T11:23:51.805Z,22.67
2022-08-28T11:26:27.143Z,23.09
2022-08-28T11:28:53.775Z,23.24
2022-08-28T11:31:28.933Z,23.49
2022-08-28T11:33:58.957Z,23.16
2022-08-28T11:36:26.416Z,22.83
2022-08-28T11:38:53.253Z,22.29
2022-08-28T11:41:53.302Z,21.93
2022-08-28T11:44:28.396Z,22.50
2022-08-28T11:47:33.877Z,22.69
2022-08-28T11:50:33.557Z,22.65
2022-08-28T11:53:24.904Z,22.76
2022-08-28T11:56:13.177Z,22.36
2022-08-28T11:59:09.973Z,21.83
2022-08-28T12:01:37.513Z,21.51
2022-08-28T12:04:30.198Z,21.88
2022-08-28T12:07:11.898Z,22.08
2022-08-28T12:10:07.124Z,21.89
2022-08-28T12:12:46.191Z,22.09
2022-08-28T12:15:27.983Z,21.83
2022-08-28T12:17:59.479Z,21.92
2022-08-28T12:20:59.799Z,21.73
2022-08-28T12:23:39.562Z,21.71
2022-08-28T12:26:12.434Z,21.96
2022-08-28T12:28:44.054Z,22.23
2022-08-28T12:31:18.572Z,22.59
2022-08-28T12:33:50.506Z,22.45
2022-08-28T12:36:19.099Z,22.18
2022-08-28T12:38:50.975Z,22.22
2022-08-28T12:41:18.451Z,22.45
2022-08-28T12:43:49.054Z,22.33
2022-08-28T12:46:20.382Z,22.37
2022-08-28T12:48:49.249Z,22.21
2022-08-28T12:51:21.991Z,22.00
2022-08-28T12:54:00.462Z,21.85
2022-08-28T12:56:30.078Z,22.02
2022-08-28T12:58:56.880Z,21.80
2022-08-28T13:01:33.424Z,22.21
2022-08-28T13:04:03.786Z,22.22
2022-08-28T13:06:36.518Z,22.92
2022-08-28T13:09:14.459Z,23.24
2022-08-28T13:11:49.134Z,23.16
2022-08-28T13:14:44.050Z,22.55
2022-08-28T13:17:12.342Z,21.95
2022-08-28T13:19:39.039Z,22.06
2022-08-28T13:22:08.593Z,22.96
2022-08-28T13:24:35.114Z,23.20
2022-08-28T13:27:16.595Z,23.15
2022-08-28T13:30:13.505Z,23.55
2022-08-28T13:32:40.550Z,23.52
2022-08-28T13:35:22.089Z,23.11
2022-08-28T13:37:57.314Z,22.74
2022-08-28T13:43:15.764Z,22.27
2022-08-28T13:45:45.078Z,22.11
2022-08-28T13:48:26.158Z,21.74
2022-08-28T13:51:10.812Z,21.62
2022-08-28T13:53:38.663Z,21.62
2022-08-28T13:56:05.824Z,21.45
2022-08-28T13:58:32.388Z,21.33
2022-08-28T14:00:59.109Z,21.36
2022-08-28T14:03:41.187Z,21.05
2022-08-28T14:06:14.059Z,21.03
2022-08-28T14:08:41.681Z,20.99
2022-08-28T14:11:08.546Z,20.80
2022-08-28T14:13:40.232Z,20.69
2022-08-28T14:16:07.896Z,20.87
2022-08-28T14:18:34.834Z,21.32
2022-08-28T14:21:06.834Z,21.35
2022-08-28T14:23:33.530Z,20.88
2022-08-28T14:26:00.033Z,20.79
2022-08-28T14:28:26.642Z,20.91
2022-08-28T14:30:53.219Z,21.63
2022-08-28T14:33:20.699Z,22.02
2022-08-28T14:35:48.791Z,22.75
2022-08-28T14:38:15.642Z,22.86
2022-08-28T14:40:43.884Z,22.68
2022-08-28T14:43:11.227Z,22.75
2022-08-28T14:45:47.329Z,23.11
2022-08-28T14:48:17.507Z,23.01
2022-08-28T14:50:46.507Z,22.59
2022-08-28T14:53:13.827Z,22.15
2022-08-28T14:55:42.764Z,21.95
2022-08-28T14:58:09.341Z,21.94
2022-08-28T15:00:44.205Z,21.89
2022-08-28T15:03:11.036Z,21.97
2022-08-28T15:05:37.641Z,21.93
2022-08-28T15:08:14.955Z,22.13
2022-08-28T15:10:42.289Z,22.21
2022-08-28T15:13:13.241Z,22.06
2022-08-28T15:15:42.491Z,22.67
2022-08-28T15:18:10.221Z,23.25
2022-08-28T15:20:39.241Z,23.19
2022-08-28T15:23:05.987Z,22.65
2022-08-28T15:25:32.566Z,22.28
2022-08-28T15:27:59.063Z,22.05
2022-08-28T15:30:25.598Z,21.79
2022-08-28T15:32:52.656Z,21.57
2022-08-28T15:35:19.186Z,21.78
2022-08-28T15:37:45.729Z,21.75
2022-08-28T15:40:30.830Z,21.69
2022-08-28T15:42:57.491Z,22.00
2022-08-28T15:45:24.224Z,21.77
2022-08-28T15:47:50.868Z,21.31
2022-08-28T15:50:19.887Z,21.00
2022-08-28T15:52:46.756Z,21.13
2022-08-28T15:55:13.678Z,21.00
2022-08-28T15:57:40.250Z,20.75
2022-08-28T16:00:10.340Z,20.81
2022-08-28T16:02:37.436Z,20.73
2022-08-28T16:05:04.186Z,20.67
2022-08-28T16:07:30.699Z,20.84
2022-08-28T16:09:57.192Z,20.72
2022-08-28T16:12:25.402Z,20.78
2022-08-28T16:14:51.978Z,20.89
2022-08-28T16:17:18.939Z,20.95
2022-08-28T16:19:46.573Z,20.80
2022-08-28T16:22:15.839Z,20.49
2022-08-28T16:24:42.814Z,20.49
2022-08-28T16:27:14.666Z,20.16
2022-08-28T16:29:42.602Z,20.27
2022-08-28T16:32:09.454Z,20.30
2022-08-28T16:34:38.632Z,20.27
2022-08-28T16:37:06.072Z,20.08
2022-08-28T16:39:35.383Z,19.93
2022-08-28T16:42:02.023Z,19.97
2022-08-28T16:44:28.569Z,19.96
2022-08-28T16:46:55.583Z,20.01
2022-08-28T16:49:23.582Z,20.06
2022-08-28T16:51:50.139Z,19.82
2022-08-28T16:54:18.123Z,19.72
2022-08-28T16:56:45.866Z,19.70
2022-08-28T16:59:17.397Z,19.76
2022-08-28T17:01:44.281Z,19.74
2022-08-28T17:04:12.201Z,19.75
2022-08-28T17:06:39.951Z,19.78
2022-08-28T17:09:06.772Z,19.74
2022-08-28T17:11:33.258Z,19.78
2022-08-28T17:14:00.483Z,19.66
2022-08-28T17:16:29.702Z,19.62
2022-08-28T17:18:56.317Z,19.67
2022-08-28T17:21:41.810Z,19.92
2022-08-28T17:24:12.404Z,20.00
2022-08-28T17:26:40.534Z,19.95
2022-08-28T17:29:07.092Z,19.90
2022-08-28T17:31:33.759Z,19.87
2022-08-28T17:34:00.417Z,19.87
2022-08-28T17:36:32.730Z,19.66
2022-08-28T17:39:04.831Z,19.59
2022-08-28T17:41:33.679Z,19.59
2022-08-28T17:44:01.278Z,19.65
2022-08-28T17:46:27.953Z,19.59
2022-08-28T17:48:56.227Z,19.51
2022-08-28T17:51:42.869Z,19.48
2022-08-28T17:54:15.655Z,19.34
2022-08-28T17:56:42.488Z,19.23
2022-08-28T17:59:10.078Z,19.19
2022-08-28T18:01:36.644Z,19.23
2022-08-28T18:04:05.017Z,19.18
2022-08-28T18:06:34.728Z,19.11
2022-08-28T18:09:01.376Z,18.90
2022-08-28T18:11:28.216Z,18.90
2022-08-28T18:13:54.756Z,18.86
2022-08-28T18:16:21.561Z,18.88
2022-08-28T18:18:48.226Z,18.90
2022-08-28T18:21:14.724Z,18.86
2022-08-28T18:23:41.228Z,18.82
2022-08-28T18:26:08.747Z,18.79
2022-08-28T18:28:35.764Z,18.92
2022-08-28T18:31:03.082Z,18.94
2022-08-28T18:33:29.661Z,18.91
2022-08-28T18:35:56.721Z,18.82
2022-08-28T18:38:27.550Z,18.84
2022-08-28T18:40:54.972Z,18.76
2022-08-28T18:43:22.381Z,18.67
2022-08-28T18:45:52.146Z,18.68
2022-08-28T18:48:19.241Z,18.75
2022-08-28T18:50:48.211Z,18.69
2022-08-28T18:53:16.191Z,18.67
2022-08-28T18:55:42.712Z,18.66
2022-08-28T18:58:11.210Z,18.73
2022-08-28T19:00:42.310Z,18.71
2022-08-28T19:03:09.259Z,18.73
2022-08-28T19:05:36.518Z,18.75
2022-08-28T19:08:03.490Z,18.68
2022-08-28T19:10:34.729Z,18.68
2022-08-28T19:13:01.978Z,18.71
2022-08-28T19:15:28.588Z,18.75
2022-08-28T19:17:55.312Z,18.74
2022-08-28T19:20:21.851Z,18.77
2022-08-28T19:22:48.729Z,18.78
2022-08-28T19:25:27.593Z,18.75
2022-08-28T19:27:58.869Z,18.74
2022-08-28T19:30:26.536Z,18.71
2022-08-28T19:32:53.212Z,18.71
2022-08-28T19:35:19.752Z,18.60
2022-08-28T19:37:47.030Z,18.58
2022-08-28T19:40:13.656Z,18.52
2022-08-28T19:42:40.674Z,18.50
2022-08-28T19:45:08.790Z,18.40
2022-08-28T19:47:35.883Z,18.38
2022-08-28T19:50:03.174Z,18.32
2022-08-28T19:52:29.868Z,18.34
2022-08-28T19:54:56.676Z,18.33
2022-08-28T19:57:23.202Z,18.26
2022-08-28T19:59:49.718Z,18.31
2022-08-28T20:02:16.259Z,18.27
2022-08-28T20:04:42.851Z,18.30
2022-08-28T20:07:09.427Z,18.27
2022-08-28T20:09:35.941Z,18.26
2022-08-28T20:12:03.595Z,18.28
2022-08-28T20:14:30.171Z,18.29
2022-08-28T20:16:58.143Z,18.23
2022-08-28T20:19:24.673Z,18.28
2022-08-28T20:21:51.389Z,18.35
2022-08-28T20:24:21.867Z,18.39
2022-08-28T20:26:49.155Z,18.41
2022-08-28T20:29:16.895Z,18.45
2022-08-28T20:31:46.168Z,18.45
2022-08-28T20:34:14.979Z,18.50
2022-08-28T20:36:41.600Z,18.53
2022-08-28T20:39:09.306Z,18.49
2022-08-28T20:41:37.977Z,18.51
2022-08-28T20:44:06.748Z,18.52
2022-08-28T20:46:38.513Z,18.53
2022-08-28T20:49:11.511Z,18.51
2022-08-28T20:51:56.218Z,18.50
2022-08-28T20:54:26.112Z,18.41
2022-08-28T20:56:52.759Z,18.38
2022-08-28T20:59:20.110Z,18.35
2022-08-28T21:01:49.495Z,18.36
2022-08-28T21:04:16.124Z,18.32
2022-08-28T21:06:46.449Z,18.31
2022-08-28T21:09:17.085Z,18.26
2022-08-28T21:11:44.245Z,18.17
2022-08-28T21:14:10.976Z,18.09
2022-08-28T21:16:38.665Z,18.02
2022-08-28T21:19:15.723Z,17.97
2022-08-28T21:21:43.653Z,17.92
2022-08-28T21:24:12.615Z,17.85
2022-08-28T21:26:47.133Z,17.78
2022-08-28T21:29:14.586Z,17.69
2022-08-28T21:31:42.684Z,17.69
2022-08-28T21:34:09.944Z,17.68
2022-08-28T21:36:38.004Z,17.67
2022-08-28T21:39:05.316Z,17.66
2022-08-28T21:41:32.104Z,17.62
2022-08-28T21:43:59.416Z,17.61
2022-08-28T21:46:27.569Z,17.62
2022-08-28T21:48:56.139Z,17.63
2022-08-28T21:51:23.313Z,17.60
2022-08-28T21:53:50.448Z,17.55
2022-08-28T21:56:25.975Z,17.54
2022-08-28T21:58:54.283Z,17.46
2022-08-28T22:01:21.697Z,17.41
2022-08-28T22:03:48.232Z,17.38
2022-08-28T22:06:18.284Z,17.34
2022-08-28T22:08:45.988Z,17.29
2022-08-28T22:11:13.448Z,17.17
2022-08-28T22:13:42.161Z,17.14
2022-08-28T22:16:10.330Z,17.14
2022-08-28T22:18:37.195Z,17.12
2022-08-28T22:21:22.280Z,17.11
2022-08-28T22:23:48.759Z,17.06
2022-08-28T22:26:19.147Z,17.06
2022-08-28T22:28:45.788Z,17.02
2022-08-28T22:31:12.407Z,16.97
2022-08-28T22:33:39.114Z,17.05
2022-08-28T22:36:05.995Z,17.04
2022-08-28T22:38:32.741Z,16.99
2022-08-28T22:40:59.246Z,16.89
2022-08-28T22:43:26.706Z,16.90
2022-08-28T22:45:53.431Z,16.93
2022-08-28T22:48:19.991Z,16.91
2022-08-28T22:50:47.554Z,16.87
2022-08-28T22:53:17.222Z,16.89
2022-08-28T22:55:44.397Z,16.85
2022-08-28T22:58:12.844Z,16.80
2022-08-28T23:00:41.637Z,16.82
2022-08-28T23:03:08.318Z,16.82
2022-08-28T23:05:34.949Z,16.76
2022-08-28T23:08:01.468Z,16.78
2022-08-28T23:10:48.299Z,16.71
2022-08-28T23:13:15.130Z,16.82
2022-08-28T23:15:42.074Z,16.76
2022-08-28T23:18:08.575Z,16.73
2022-08-28T23:20:35.562Z,16.73
2022-08-28T23:23:02.369Z,16.72
2022-08-28T23:25:28.918Z,16.68
2022-08-28T23:27:55.908Z,16.69
2022-08-28T23:30:22.529Z,16.69
2022-08-28T23:32:52.141Z,16.69
2022-08-28T23:35:20.092Z,16.65
2022-08-28T23:37:52.058Z,16.59
2022-08-28T23:40:21.744Z,16.58
2022-08-28T23:42:48.800Z,16.56
2022-08-28T23:45:16.578Z,16.59
2022-08-28T23:47:44.226Z,16.55
2022-08-28T23:50:18.394Z,16.53
2022-08-28T23:52:45.254Z,16.46
2022-08-28T23:55:13.113Z,16.49
2022-08-28T23:57:40.119Z,16.47
